Time;durP1;ratioP1;P1;durP2;ratioP2;P2;SDS_P1;SDS_P2;PMS_P1;PMS_P2;Temp;Humidity;BMP_temperature;BMP_pressure;BME280_temperature;BME280_humidity;BME280_pressure;Samples;Min_cycle;Max_cycle;Signal;HPM_P1;HPM_P2
2022/07/10 00:02:16;;;;;;;17.10;6.47;;;;;;;;;;5013211;28;20482;-58
2022/07/10 00:04:42;;;;;;;16.00;6.70;;;;;;;;;;4995593;28;20045;-58
2022/07/10 00:07:09;;;;;;;14.68;6.53;;;;;;;;;;4995465;28;20509;-60
2022/07/10 00:09:35;;;;;;;16.23;7.32;;;;;;;;;;5013061;28;20041;-61
2022/07/10 00:12:01;;;;;;;14.27;6.22;;;;;;;;;;4995262;28;20056;-60
2022/07/10 00:14:27;;;;;;;14.75;6.55;;;;;;;;;;4995492;28;20147;-59
2022/07/10 00:16:53;;;;;;;16.80;7.00;;;;;;;;;;5012987;28;20406;-60
2022/07/10 00:19:19;;;;;;;14.05;6.40;;;;;;;;;;5013242;28;20029;-59
2022/07/10 00:21:45;;;;;;;16.20;6.10;;;;;;;;;;5013482;28;20036;-60
2022/07/10 00:24:11;;;;;;;15.93;6.35;;;;;;;;;;4996797;28;20026;-60
2022/07/10 00:26:37;;;;;;;16.23;6.50;;;;;;;;;;5013654;28;20022;-60
2022/07/10 00:29:03;;;;;;;13.98;6.25;;;;;;;;;;4994690;28;20028;-58
2022/07/10 00:31:29;;;;;;;15.45;6.97;;;;;;;;;;5013080;28;20566;-58
2022/07/10 00:33:55;;;;;;;18.05;6.40;;;;;;;;;;4995239;28;20030;-59
2022/07/10 00:36:21;;;;;;;15.43;6.75;;;;;;;;;;5012739;28;20025;-60
2022/07/10 00:38:47;;;;;;;14.88;6.60;;;;;;;;;;5012692;28;20047;-59
2022/07/10 00:41:13;;;;;;;17.75;6.78;;;;;;;;;;5012805;28;20100;-61
2022/07/10 00:43:53;;;;;;;18.13;6.70;;;;;;;;;;5012686;28;20022;-59
2022/07/10 00:46:22;;;;;;;17.13;6.47;;;;;;;;;;5012586;28;20058;-59
2022/07/10 00:48:51;;;;;;;16.45;6.10;;;;;;;;;;5012263;28;20029;-60
2022/07/10 00:51:18;;;;;;;14.30;6.50;;;;;;;;;;5012377;28;20108;-59
2022/07/10 00:53:46;;;;;;;15.20;6.95;;;;;;;;;;5012430;28;20520;-58
2022/07/10 00:56:12;;;;;;;15.25;6.35;;;;;;;;;;5012484;28;20022;-61
2022/07/10 00:58:41;;;;;;;17.10;6.35;;;;;;;;;;4994747;28;20467;-60
2022/07/10 01:01:07;;;;;;;16.13;6.65;;;;;;;;;;4994757;28;20022;-60
2022/07/10 01:03:33;;;;;;;13.88;6.30;;;;;;;;;;5012443;28;20026;-59
2022/07/10 01:05:59;;;;;;;16.35;6.80;;;;;;;;;;5012385;28;20033;-59
2022/07/10 01:08:26;;;;;;;16.63;6.53;;;;;;;;;;5012391;28;20072;-57
2022/07/10 01:10:52;;;;;;;17.13;6.28;;;;;;;;;;5012482;28;20034;-56
2022/07/10 01:13:18;;;;;;;15.38;6.30;;;;;;;;;;4994608;28;20042;-59
2022/07/10 01:15:45;;;;;;;17.77;7.85;;;;;;;;;;5011961;28;20479;-59
2022/07/10 01:18:11;;;;;;;16.00;6.50;;;;;;;;;;5012046;28;20109;-60
2022/07/10 01:20:37;;;;;;;13.75;6.13;;;;;;;;;;5012360;28;20397;-62
2022/07/10 01:23:03;;;;;;;19.70;6.82;;;;;;;;;;5012361;28;20026;-60
2022/07/10 01:25:29;;;;;;;16.85;6.50;;;;;;;;;;5012156;28;20030;-61
2022/07/10 01:27:55;;;;;;;15.13;6.60;;;;;;;;;;5012051;28;20030;-59
2022/07/10 01:30:21;;;;;;;15.40;6.82;;;;;;;;;;5012112;28;20030;-60
2022/07/10 01:32:47;;;;;;;17.17;6.90;;;;;;;;;;4994427;28;20028;-62
2022/07/10 01:35:14;;;;;;;17.77;6.97;;;;;;;;;;4994379;28;20025;-59
2022/07/10 01:37:40;;;;;;;15.32;6.70;;;;;;;;;;5011530;28;20499;-61
2022/07/10 01:40:07;;;;;;;18.77;6.95;;;;;;;;;;4996557;28;20121;-60
2022/07/10 01:42:33;;;;;;;17.33;6.30;;;;;;;;;;5015329;28;20060;-60
2022/07/10 01:44:59;;;;;;;15.18;6.30;;;;;;;;;;5015546;28;20379;-60
2022/07/10 01:47:27;;;;;;;18.70;6.10;;;;;;;;;;4997595;28;20025;-58
2022/07/10 01:49:53;;;;;;;15.82;6.50;;;;;;;;;;5015914;28;20042;-55
2022/07/10 01:52:20;;;;;;;16.15;7.00;;;;;;;;;;4997747;28;20034;-60
2022/07/10 01:54:46;;;;;;;18.70;6.60;;;;;;;;;;5015410;28;20022;-61
2022/07/10 01:57:13;;;;;;;17.55;6.22;;;;;;;;;;5015303;28;20083;-60
2022/07/10 01:59:39;;;;;;;20.83;6.90;;;;;;;;;;4997812;28;20034;-60
2022/07/10 02:02:05;;;;;;;15.10;6.32;;;;;;;;;;5015046;28;20037;-60
2022/07/10 02:04:40;;;;;;;14.00;6.38;;;;;;;;;;4997781;28;20025;-60
2022/07/10 02:07:06;;;;;;;14.23;5.95;;;;;;;;;;4997930;28;20375;-59
2022/07/10 02:09:32;;;;;;;17.38;6.35;;;;;;;;;;4997271;28;20394;-61
2022/07/10 02:11:58;;;;;;;16.00;6.65;;;;;;;;;;4997147;28;20053;-61
2022/07/10 02:14:26;;;;;;;15.98;6.30;;;;;;;;;;4997783;28;20080;-59
2022/07/10 02:16:52;;;;;;;16.98;6.20;;;;;;;;;;5014626;28;20037;-59
2022/07/10 02:19:18;;;;;;;17.17;6.30;;;;;;;;;;4997117;28;20025;-57
2022/07/10 02:21:45;;;;;;;15.90;6.18;;;;;;;;;;5015041;28;20026;-60
2022/07/10 02:24:11;;;;;;;16.38;6.28;;;;;;;;;;5015110;28;20030;-61
2022/07/10 02:26:37;;;;;;;16.00;6.38;;;;;;;;;;4998250;28;20084;-60
2022/07/10 02:29:04;;;;;;;17.35;6.30;;;;;;;;;;4996871;28;20120;-59
2022/07/10 02:31:30;;;;;;;17.10;6.57;;;;;;;;;;5014591;28;20449;-60
2022/07/10 02:33:56;;;;;;;14.02;6.40;;;;;;;;;;4996855;28;20022;-60
2022/07/10 02:36:22;;;;;;;17.55;6.10;;;;;;;;;;5014776;28;20083;-56
2022/07/10 02:38:48;;;;;;;14.82;6.35;;;;;;;;;;4996826;28;20026;-58
2022/07/10 02:41:14;;;;;;;15.27;6.70;;;;;;;;;;5014372;28;20025;-59
2022/07/10 02:43:40;;;;;;;15.70;6.38;;;;;;;;;;4996658;28;20175;-58
2022/07/10 02:46:06;;;;;;;16.98;6.47;;;;;;;;;;5014231;28;20030;-60
2022/07/10 02:48:32;;;;;;;15.00;6.47;;;;;;;;;;5014151;28;20030;-59
2022/07/10 02:50:58;;;;;;;16.08;6.70;;;;;;;;;;5013490;28;20036;-57
2022/07/10 02:53:24;;;;;;;15.35;7.07;;;;;;;;;;5014127;28;20105;-56
2022/07/10 02:55:50;;;;;;;15.05;6.50;;;;;;;;;;4996412;28;20390;-59
2022/07/10 02:58:17;;;;;;;18.10;6.72;;;;;;;;;;4996286;28;20447;-59
2022/07/10 03:00:43;;;;;;;20.02;8.57;;;;;;;;;;4996373;28;20102;-59
2022/07/10 03:03:09;;;;;;;16.10;6.65;;;;;;;;;;5014012;28;20041;-59
2022/07/10 03:05:35;;;;;;;18.17;7.25;;;;;;;;;;4996232;28;20036;-57
2022/07/10 03:08:01;;;;;;;18.92;6.95;;;;;;;;;;5013677;28;20097;-58
2022/07/10 03:10:27;;;;;;;18.33;6.90;;;;;;;;;;4996161;28;20028;-60
2022/07/10 03:12:53;;;;;;;21.05;6.93;;;;;;;;;;5013458;28;20034;-58
2022/07/10 03:15:19;;;;;;;16.35;7.03;;;;;;;;;;5013912;28;20021;-59
2022/07/10 03:17:45;;;;;;;19.25;6.55;;;;;;;;;;4995944;28;20601;-55
2022/07/10 03:20:12;;;;;;;15.25;6.63;;;;;;;;;;5013618;28;20105;-57
2022/07/10 03:22:38;;;;;;;15.93;6.55;;;;;;;;;;4995920;28;20626;-57
2022/07/10 03:25:04;;;;;;;17.45;6.57;;;;;;;;;;5013470;28;20030;-59
2022/07/10 03:27:30;;;;;;;16.67;6.82;;;;;;;;;;4995435;28;20104;-59
2022/07/10 03:29:56;;;;;;;16.13;6.65;;;;;;;;;;4995791;28;20170;-57
2022/07/10 03:32:22;;;;;;;18.67;6.70;;;;;;;;;;5013219;28;20467;-55
2022/07/10 03:34:48;;;;;;;17.23;6.85;;;;;;;;;;5013469;28;20115;-56
2022/07/10 03:37:14;;;;;;;16.92;7.53;;;;;;;;;;4995681;28;20030;-60
2022/07/10 03:39:40;;;;;;;17.10;6.40;;;;;;;;;;5013255;28;20018;-59
2022/07/10 03:42:06;;;;;;;17.20;6.30;;;;;;;;;;5013061;28;20100;-59
2022/07/10 03:44:32;;;;;;;15.00;6.13;;;;;;;;;;4995648;28;20026;-60
2022/07/10 03:46:59;;;;;;;15.38;6.57;;;;;;;;;;5013358;28;20018;-59
2022/07/10 03:49:26;;;;;;;17.58;6.57;;;;;;;;;;4995338;28;20022;-58
2022/07/10 03:51:52;;;;;;;19.45;7.05;;;;;;;;;;5013171;28;20080;-57
2022/07/10 03:54:18;;;;;;;14.75;6.68;;;;;;;;;;5012977;28;20021;-58
2022/07/10 03:59:28;;;;;;;18.60;7.03;;;;;;;;;;5013052;28;20561;-54
2022/07/10 04:01:54;;;;;;;14.90;7.03;;;;;;;;;;5012815;28;20057;-57
2022/07/10 04:04:21;;;;;;;17.52;6.80;;;;;;;;;;5012181;28;20030;-55
2022/07/10 04:06:47;;;;;;;16.13;7.13;;;;;;;;;;5012938;28;20079;-55
2022/07/10 04:09:13;;;;;;;18.73;7.05;;;;;;;;;;5012498;28;20041;-59
2022/07/10 04:11:39;;;;;;;19.77;7.63;;;;;;;;;;4995195;28;20026;-58
2022/07/10 04:14:05;;;;;;;15.10;6.80;;;;;;;;;;5012550;28;20033;-54
2022/07/10 04:16:31;;;;;;;16.15;7.00;;;;;;;;;;5012930;28;20022;-54
2022/07/10 04:18:57;;;;;;;16.15;7.35;;;;;;;;;;4995222;28;20057;-55
2022/07/10 04:21:23;;;;;;;16.02;7.25;;;;;;;;;;5012824;28;20022;-58
2022/07/10 04:23:49;;;;;;;17.05;7.07;;;;;;;;;;5012408;28;20022;-55
2022/07/10 04:26:15;;;;;;;17.13;6.88;;;;;;;;;;5012986;28;20398;-57
2022/07/10 04:28:41;;;;;;;17.73;7.28;;;;;;;;;;4995065;28;20022;-57
2022/07/10 04:31:07;;;;;;;16.35;7.03;;;;;;;;;;5012635;28;20113;-59
2022/07/10 04:33:34;;;;;;;17.10;7.38;;;;;;;;;;5012659;28;20101;-59
2022/07/10 04:36:00;;;;;;;15.57;6.78;;;;;;;;;;5012840;28;20376;-59
2022/07/10 04:38:26;;;;;;;19.20;6.82;;;;;;;;;;5012242;28;20018;-58
2022/07/10 04:40:52;;;;;;;15.60;7.15;;;;;;;;;;4995029;28;20038;-60
2022/07/10 04:43:18;;;;;;;14.70;6.65;;;;;;;;;;4995087;28;20030;-58
2022/07/10 04:45:45;;;;;;;14.88;7.00;;;;;;;;;;4994893;28;20474;-60
2022/07/10 04:48:11;;;;;;;16.25;7.22;;;;;;;;;;5012514;28;20596;-55
2022/07/10 04:50:38;;;;;;;18.50;7.10;;;;;;;;;;4995043;28;20045;-57
2022/07/10 04:53:04;;;;;;;15.65;7.10;;;;;;;;;;5012321;28;20108;-57
2022/07/10 04:55:30;;;;;;;18.73;7.95;;;;;;;;;;4994761;28;20030;-59
2022/07/10 04:57:56;;;;;;;17.85;6.90;;;;;;;;;;5012006;28;20386;-57
2022/07/10 05:00:22;;;;;;;16.60;6.88;;;;;;;;;;5012390;28;20026;-58
2022/07/10 05:02:48;;;;;;;14.75;6.82;;;;;;;;;;5012368;28;20026;-58
2022/07/10 05:05:14;;;;;;;15.98;7.30;;;;;;;;;;4994464;28;20033;-56
2022/07/10 05:07:40;;;;;;;14.95;6.65;;;;;;;;;;5011783;28;20023;-57
2022/07/10 05:10:06;;;;;;;16.42;7.40;;;;;;;;;;4994558;28;20076;-58
2022/07/10 05:12:32;;;;;;;18.77;7.43;;;;;;;;;;5012063;28;20044;-58
2022/07/10 05:14:59;;;;;;;18.40;6.90;;;;;;;;;;5014273;28;20048;-58
2022/07/10 05:17:26;;;;;;;16.00;6.85;;;;;;;;;;5015783;28;20084;-58
2022/07/10 05:19:55;;;;;;;16.52;7.50;;;;;;;;;;4998655;28;20030;-58
2022/07/10 05:22:21;;;;;;;;;;;;;;;;;;4998952;28;20029;-60
2022/07/10 05:24:47;;;;;;;17.63;7.00;;;;;;;;;;4997959;28;20269;-60
2022/07/10 05:27:13;;;;;;;14.90;6.63;;;;;;;;;;4998021;28;20026;-61
2022/07/10 05:29:39;;;;;;;17.50;7.28;;;;;;;;;;5016074;28;20018;-59
2022/07/10 05:32:05;;;;;;;18.63;7.25;;;;;;;;;;5015413;28;20058;-59
2022/07/10 05:34:31;;;;;;;16.52;6.90;;;;;;;;;;5015748;28;20406;-60
2022/07/10 05:36:57;;;;;;;17.98;7.18;;;;;;;;;;5015707;28;20018;-59
2022/07/10 05:39:26;;;;;;;19.08;7.03;;;;;;;;;;4997819;28;20025;-57
2022/07/10 05:41:52;;;;;;;;;;;;;;;;;;5016051;28;20084;-60
2022/07/10 05:44:19;;;;;;;18.55;7.03;;;;;;;;;;5015419;28;19913;-53
2022/07/10 05:46:46;;;;;;;22.70;7.18;;;;;;;;;;5015585;28;20033;-59
2022/07/10 05:49:12;;;;;;;17.95;7.57;;;;;;;;;;4997609;28;20490;-56
2022/07/10 05:51:38;;;;;;;17.92;7.07;;;;;;;;;;4997777;28;20026;-60
2022/07/10 05:54:04;;;;;;;16.02;7.30;;;;;;;;;;5015080;28;20032;-58
2022/07/10 05:56:31;;;;;;;19.88;7.75;;;;;;;;;;5015611;28;20033;-58
2022/07/10 05:58:57;;;;;;;25.48;10.25;;;;;;;;;;5015152;28;20018;-58
2022/07/10 06:01:23;;;;;;;24.35;8.52;;;;;;;;;;5015167;28;20113;-57
2022/07/10 06:03:49;;;;;;;17.58;7.60;;;;;;;;;;5015177;28;20030;-58
2022/07/10 06:06:16;;;;;;;17.77;7.20;;;;;;;;;;4997441;28;20033;-59
2022/07/10 06:08:42;;;;;;;18.08;7.40;;;;;;;;;;5014924;28;20398;-58
2022/07/10 06:11:08;;;;;;;16.08;7.60;;;;;;;;;;4997319;28;20030;-52
2022/07/10 06:13:34;;;;;;;17.10;7.57;;;;;;;;;;4997126;28;20030;-61
2022/07/10 06:16:00;;;;;;;20.08;8.02;;;;;;;;;;4997382;28;20060;-60
2022/07/10 06:18:27;;;;;;;16.60;7.53;;;;;;;;;;5014573;28;20022;-59
2022/07/10 06:20:52;;;;;;;15.55;8.18;;;;;;;;;;5014804;28;20037;-59
2022/07/10 06:23:18;;;;;;;18.17;8.57;;;;;;;;;;5026826;23;20418;-64
2022/07/10 06:25:44;;;;;;;16.80;8.55;;;;;;;;;;5012755;28;20029;-63
2022/07/10 06:28:10;;;;;;;19.05;8.60;;;;;;;;;;5014687;28;20048;-64
2022/07/10 06:30:36;;;;;;;21.05;8.90;;;;;;;;;;5015072;28;20121;-61
2022/07/10 06:33:02;;;;;;;16.20;7.90;;;;;;;;;;5015093;28;20684;-62
2022/07/10 06:35:28;;;;;;;17.38;8.25;;;;;;;;;;5014897;28;20121;-62
2022/07/10 06:37:54;;;;;;;16.90;8.18;;;;;;;;;;5014646;28;20025;-63
2022/07/10 06:40:21;;;;;;;16.67;8.45;;;;;;;;;;5014676;28;20131;-62
2022/07/10 06:42:47;;;;;;;16.88;8.32;;;;;;;;;;5014504;28;20367;-61
2022/07/10 06:45:13;;;;;;;19.63;8.10;;;;;;;;;;5014566;28;20018;-63
2022/07/10 06:48:01;;;;;;;18.50;8.38;;;;;;;;;;5012993;28;20029;-61
2022/07/10 06:50:32;;;;;;;17.93;8.77;;;;;;;;;;5014752;28;20033;-60
2022/07/10 06:52:58;;;;;;;19.08;8.75;;;;;;;;;;5014247;28;20281;-60
2022/07/10 06:55:25;;;;;;;15.52;7.50;;;;;;;;;;5014436;28;20026;-64
2022/07/10 06:57:52;;;;;;;18.75;8.50;;;;;;;;;;5014372;28;20018;-64
2022/07/10 07:00:18;;;;;;;18.08;8.25;;;;;;;;;;5014179;28;20610;-62
2022/07/10 07:02:44;;;;;;;18.73;8.60;;;;;;;;;;5013209;28;20120;-63
2022/07/10 07:05:10;;;;;;;17.60;8.23;;;;;;;;;;5014301;28;20101;-65
2022/07/10 07:07:36;;;;;;;18.48;8.57;;;;;;;;;;5014294;28;20528;-64
2022/07/10 07:10:03;;;;;;;15.77;7.40;;;;;;;;;;5014152;28;20022;-64
2022/07/10 07:12:29;;;;;;;18.60;7.50;;;;;;;;;;5014074;28;20026;-63
2022/07/10 07:14:55;;;;;;;29.48;9.23;;;;;;;;;;5013830;28;20032;-63
2022/07/10 07:17:33;;;;;;;18.05;7.22;;;;;;;;;;5014030;28;20022;-64
2022/07/10 07:25:30;;;;;;;17.98;7.90;;;;;;;;;;5014376;28;20160;-64
2022/07/10 07:27:56;;;;;;;16.60;7.55;;;;;;;;;;5013735;28;20025;-62
2022/07/10 07:30:22;;;;;;;17.25;7.60;;;;;;;;;;5013936;28;20080;-63
2022/07/10 07:32:48;;;;;;;15.75;7.10;;;;;;;;;;5014003;28;20028;-60
2022/07/10 07:35:15;;;;;;;18.52;7.60;;;;;;;;;;5014125;28;20088;-62
2022/07/10 07:37:42;;;;;;;18.20;7.10;;;;;;;;;;5013622;28;20028;-62
2022/07/10 07:40:09;;;;;;;17.23;7.15;;;;;;;;;;5014038;28;20050;-63
2022/07/10 07:42:36;;;;;;;15.88;7.13;;;;;;;;;;5014238;28;20041;-64
2022/07/10 07:45:02;;;;;;;26.65;9.48;;;;;;;;;;5013763;28;20026;-61
2022/07/10 07:47:28;;;;;;;18.25;7.60;;;;;;;;;;5013539;28;20057;-63
2022/07/10 07:49:54;;;;;;;17.40;7.57;;;;;;;;;;5013860;28;20022;-62
2022/07/10 07:52:20;;;;;;;21.08;7.72;;;;;;;;;;5013784;28;20505;-59
2022/07/10 07:54:46;;;;;;;18.08;7.03;;;;;;;;;;5013784;28;20029;-63
2022/07/10 07:57:12;;;;;;;17.13;7.80;;;;;;;;;;5013474;28;20038;-62
2022/07/10 07:59:39;;;;;;;18.20;7.60;;;;;;;;;;5012924;28;20018;-63
2022/07/10 08:02:06;;;;;;;17.77;7.32;;;;;;;;;;5021953;28;20401;-63
2022/07/10 08:04:32;;;;;;;18.90;7.95;;;;;;;;;;5015408;28;20025;-61
2022/07/10 08:06:58;;;;;;;18.42;7.03;;;;;;;;;;5032531;28;20051;-62
2022/07/10 08:09:24;;;;;;;15.23;6.97;;;;;;;;;;4995886;28;20025;-64
2022/07/10 08:11:50;;;;;;;17.35;7.78;;;;;;;;;;4995543;28;20445;-62
2022/07/10 08:14:16;;;;;;;18.50;7.90;;;;;;;;;;4995675;28;20025;-61
2022/07/10 08:16:42;;;;;;;23.65;7.65;;;;;;;;;;5004341;28;20026;-62
2022/07/10 08:19:08;;;;;;;14.65;7.30;;;;;;;;;;4993604;28;20018;-62
2022/07/10 08:21:34;;;;;;;17.27;7.28;;;;;;;;;;4992886;28;20027;-60
2022/07/10 08:24:01;;;;;;;16.30;7.57;;;;;;;;;;4992887;28;20056;-56
2022/07/10 08:26:27;;;;;;;20.27;7.60;;;;;;;;;;4993213;28;20061;-60
2022/07/10 08:28:53;;;;;;;15.75;7.88;;;;;;;;;;4992881;28;20030;-61
2022/07/10 08:31:19;;;;;;;16.42;7.00;;;;;;;;;;4992732;28;20042;-54
2022/07/10 08:33:46;;;;;;;16.13;6.88;;;;;;;;;;4983648;28;20020;-55
2022/07/10 08:36:12;;;;;;;17.13;6.75;;;;;;;;;;5012248;28;20022;-56
2022/07/10 08:38:38;;;;;;;16.80;7.10;;;;;;;;;;5011944;28;20430;-53
2022/07/10 08:41:05;;;;;;;17.85;6.90;;;;;;;;;;5011803;28;20033;-54
2022/07/10 08:43:31;;;;;;;18.63;7.20;;;;;;;;;;5009239;28;20034;-55
2022/07/10 08:45:59;;;;;;;15.93;6.75;;;;;;;;;;5009275;28;20096;-53
2022/07/10 08:48:25;;;;;;;20.40;8.18;;;;;;;;;;5012458;28;20137;-57
2022/07/10 08:50:54;;;;;;;22.65;8.25;;;;;;;;;;5009280;28;20112;-54
2022/07/10 08:53:23;;;;;;;20.77;7.38;;;;;;;;;;5004774;28;20035;-54
2022/07/10 08:55:49;;;;;;;20.33;8.05;;;;;;;;;;5018475;28;20026;-52
2022/07/10 08:58:15;;;;;;;18.50;7.28;;;;;;;;;;5018371;28;20084;-56
2022/07/10 09:00:41;;;;;;;18.25;7.15;;;;;;;;;;5018592;28;20030;-55
2022/07/10 09:03:08;;;;;;;25.02;7.55;;;;;;;;;;5018555;28;20374;-53
2022/07/10 09:05:35;;;;;;;19.60;7.78;;;;;;;;;;5018425;28;20072;-54
2022/07/10 09:08:01;;;;;;;18.15;7.28;;;;;;;;;;5000779;28;20032;-55
2022/07/10 09:10:28;;;;;;;21.63;8.00;;;;;;;;;;5018544;28;20037;-54
2022/07/10 09:12:55;;;;;;;17.92;6.90;;;;;;;;;;5018539;28;20399;-55
2022/07/10 09:15:22;;;;;;;16.98;7.65;;;;;;;;;;5018309;28;20021;-54
2022/07/10 09:17:51;;;;;;;17.08;7.43;;;;;;;;;;5018422;28;20053;-53
2022/07/10 09:20:33;;;;;;;15.30;7.00;;;;;;;;;;5018496;28;20403;-56
2022/07/10 09:23:10;;;;;;;16.75;7.50;;;;;;;;;;5018737;28;20393;-57
2022/07/10 09:25:36;;;;;;;22.50;7.57;;;;;;;;;;5019186;28;20026;-58
2022/07/10 09:28:05;;;;;;;16.75;7.65;;;;;;;;;;5000905;28;20026;-56
2022/07/10 09:30:32;;;;;;;15.57;7.20;;;;;;;;;;5018617;28;20164;-58
2022/07/10 09:33:23;;;;;;;15.40;7.00;;;;;;;;;;5019130;28;20488;-57
2022/07/10 09:36:10;;;;;;;17.95;7.20;;;;;;;;;;5019355;28;20214;-57
2022/07/10 09:38:46;;;;;;;17.70;6.90;;;;;;;;;;5019189;28;20041;-57
2022/07/10 09:41:12;;;;;;;23.30;8.02;;;;;;;;;;5019324;28;20022;-58
2022/07/10 09:43:44;;;;;;;16.60;7.63;;;;;;;;;;5019193;28;20034;-60
2022/07/10 09:46:10;;;;;;;15.05;6.70;;;;;;;;;;5001426;28;20513;-56
2022/07/10 09:48:36;;;;;;;17.90;6.70;;;;;;;;;;5005860;28;20483;-58
2022/07/10 09:51:02;;;;;;;15.50;6.47;;;;;;;;;;4999074;28;20080;-57
2022/07/10 09:53:29;;;;;;;18.75;6.78;;;;;;;;;;4998726;28;20026;-57
2022/07/10 09:55:57;;;;;;;15.50;7.15;;;;;;;;;;4999019;28;20022;-56
2022/07/10 09:58:27;;;;;;;14.30;6.93;;;;;;;;;;4998747;28;20042;-51
2022/07/10 10:00:55;;;;;;;15.10;6.85;;;;;;;;;;4984709;28;20030;-63
2022/07/10 10:03:21;;;;;;;17.45;6.75;;;;;;;;;;5015070;28;20021;-63
2022/07/10 10:05:50;;;;;;;17.30;7.07;;;;;;;;;;5015111;28;20056;-62
2022/07/10 10:08:17;;;;;;;18.40;7.45;;;;;;;;;;5015063;28;20022;-62
2022/07/10 10:10:47;;;;;;;15.63;7.05;;;;;;;;;;4997305;28;20402;-62
2022/07/10 10:13:14;;;;;;;15.35;6.70;;;;;;;;;;5014689;28;20092;-63
2022/07/10 10:15:40;;;;;;;15.27;6.85;;;;;;;;;;4996721;28;20025;-63
2022/07/10 10:18:07;;;;;;;16.55;6.28;;;;;;;;;;5014585;28;20025;-64
2022/07/10 10:20:43;;;;;;;15.23;6.80;;;;;;;;;;5014322;28;20022;-63
2022/07/10 10:23:11;;;;;;;16.20;7.03;;;;;;;;;;5014510;28;20029;-63
2022/07/10 10:25:37;;;;;;;17.85;7.38;;;;;;;;;;5014556;28;20113;-63
2022/07/10 10:28:06;;;;;;;18.35;6.90;;;;;;;;;;5014591;28;20033;-63
2022/07/10 10:30:32;;;;;;;16.38;7.10;;;;;;;;;;4996972;28;20504;-64
2022/07/10 10:32:59;;;;;;;16.13;6.55;;;;;;;;;;5014523;28;20030;-64
2022/07/10 10:35:46;;;;;;;16.48;7.18;;;;;;;;;;5014228;28;20022;-63
2022/07/10 10:38:13;;;;;;;15.98;6.70;;;;;;;;;;5014122;28;20381;-63
2022/07/10 10:40:39;;;;;;;16.75;7.35;;;;;;;;;;4996862;28;20398;-64
2022/07/10 10:43:20;;;;;;;16.30;7.00;;;;;;;;;;5014280;28;20026;-64
2022/07/10 10:45:47;;;;;;;16.05;7.40;;;;;;;;;;5014344;28;20054;-62
2022/07/10 10:48:14;;;;;;;16.15;7.47;;;;;;;;;;4996354;28;20080;-64
2022/07/10 10:50:49;;;;;;;15.68;7.53;;;;;;;;;;5013971;28;20100;-63
2022/07/10 10:53:26;;;;;;;17.95;7.65;;;;;;;;;;5014224;28;20029;-63
2022/07/10 10:56:01;;;;;;;16.77;6.70;;;;;;;;;;4996769;28;20046;-62
2022/07/10 10:58:27;;;;;;;17.05;8.05;;;;;;;;;;5013622;28;20072;-63
2022/07/10 11:01:03;;;;;;;15.52;7.80;;;;;;;;;;5013678;28;20117;-64
2022/07/10 11:03:29;;;;;;;15.60;7.60;;;;;;;;;;5013979;28;20026;-63
2022/07/10 11:05:55;;;;;;;18.98;7.88;;;;;;;;;;5013848;28;20113;-64
2022/07/10 11:08:37;;;;;;;15.25;7.13;;;;;;;;;;5013582;28;20106;-63
2022/07/10 11:11:23;;;;;;;15.38;7.25;;;;;;;;;;5013725;28;20025;-64
2022/07/10 11:13:50;;;;;;;17.13;7.55;;;;;;;;;;5013948;28;20022;-64
2022/07/10 11:16:16;;;;;;;16.42;6.80;;;;;;;;;;5013344;28;20026;-62
2022/07/10 11:18:43;;;;;;;14.82;6.55;;;;;;;;;;5013101;28;20017;-63
2022/07/10 11:21:15;;;;;;;15.25;7.25;;;;;;;;;;5013586;28;20041;-64
2022/07/10 11:23:44;;;;;;;15.88;7.07;;;;;;;;;;5013372;28;20045;-64
2022/07/10 11:26:11;;;;;;;15.13;7.15;;;;;;;;;;5013673;28;20033;-65
2022/07/10 11:28:49;;;;;;;15.30;6.70;;;;;;;;;;5013297;28;20131;-64
2022/07/10 11:31:15;;;;;;;14.23;6.80;;;;;;;;;;4995633;28;20034;-64
2022/07/10 11:33:43;;;;;;;15.73;7.00;;;;;;;;;;5013204;28;20021;-64
2022/07/10 11:36:17;;;;;;;17.45;7.22;;;;;;;;;;5013176;28;20053;-63
2022/07/10 11:38:44;;;;;;;14.95;7.55;;;;;;;;;;5012936;28;20022;-63
2022/07/10 11:41:13;;;;;;;15.40;6.47;;;;;;;;;;4995541;28;20092;-62
2022/07/10 11:43:48;;;;;;;15.15;7.32;;;;;;;;;;5013214;28;20032;-62
2022/07/10 11:46:14;;;;;;;14.93;7.13;;;;;;;;;;4995481;28;20080;-63
2022/07/10 11:48:40;;;;;;;12.75;6.30;;;;;;;;;;5012693;28;20053;-62
2022/07/10 11:51:19;;;;;;;12.68;5.97;;;;;;;;;;5012938;28;20487;-62
2022/07/10 11:54:02;;;;;;;12.10;6.30;;;;;;;;;;5012922;28;20084;-62
2022/07/10 11:56:29;;;;;;;12.75;6.97;;;;;;;;;;5012875;28;20050;-62
2022/07/10 11:58:59;;;;;;;13.25;7.30;;;;;;;;;;4995054;28;20520;-61
2022/07/10 12:01:25;;;;;;;12.80;7.43;;;;;;;;;;5012556;28;20033;-63
2022/07/10 12:04:05;;;;;;;13.18;7.40;;;;;;;;;;5013002;28;20057;-62
2022/07/10 12:06:32;;;;;;;14.30;9.38;;;;;;;;;;5012788;28;20389;-63
2022/07/10 12:09:05;;;;;;;14.05;9.20;;;;;;;;;;5012524;28;20025;-63
2022/07/10 12:11:31;;;;;;;14.30;9.43;;;;;;;;;;5012432;28;20029;-63
2022/07/10 12:14:12;;;;;;;13.85;8.88;;;;;;;;;;5012760;28;20060;-62
2022/07/10 12:16:38;;;;;;;14.52;8.68;;;;;;;;;;5012240;28;20042;-62
2022/07/10 12:19:06;;;;;;;14.20;8.60;;;;;;;;;;5012283;28;20018;-63
2022/07/10 12:21:33;;;;;;;14.55;8.75;;;;;;;;;;5012399;28;20486;-64
2022/07/10 12:24:01;;;;;;;14.73;9.30;;;;;;;;;;5008205;23;20562;-63
2022/07/10 12:26:37;;;;;;;14.90;9.75;;;;;;;;;;5012429;28;20026;-59
2022/07/10 12:29:04;;;;;;;14.52;9.05;;;;;;;;;;5011682;28;20029;-59
2022/07/10 12:31:34;;;;;;;14.98;8.98;;;;;;;;;;4994549;28;20561;-60
2022/07/10 12:34:03;;;;;;;14.50;9.02;;;;;;;;;;5012145;28;20021;-56
2022/07/10 12:36:44;;;;;;;14.10;9.13;;;;;;;;;;5012321;28;20025;-60
2022/07/10 12:39:11;;;;;;;14.02;9.10;;;;;;;;;;5012082;28;20052;-61
2022/07/10 12:41:54;;;;;;;14.98;8.70;;;;;;;;;;5012380;28;20026;-61
2022/07/10 12:44:39;;;;;;;13.85;9.00;;;;;;;;;;5010661;28;20479;-58
2022/07/10 12:47:11;;;;;;;14.77;9.73;;;;;;;;;;5012192;28;20053;-61
2022/07/10 12:49:56;;;;;;;15.23;9.23;;;;;;;;;;5012800;28;20053;-59
2022/07/10 12:52:31;;;;;;;15.07;9.40;;;;;;;;;;5012388;28;20026;-60
2022/07/10 12:55:18;;;;;;;14.40;10.27;;;;;;;;;;5010812;28;20439;-60
2022/07/10 12:57:47;;;;;;;15.10;12.10;;;;;;;;;;5012108;28;20022;-60
2022/07/10 13:00:14;;;;;;;15.85;12.73;;;;;;;;;;5011082;28;20026;-58
2022/07/10 13:02:41;;;;;;;15.32;11.80;;;;;;;;;;5012052;28;20056;-60
2022/07/10 13:05:07;;;;;;;14.75;11.15;;;;;;;;;;4994131;28;20029;-62
2022/07/10 13:07:34;;;;;;;14.63;10.60;;;;;;;;;;5011904;28;20090;-59
2022/07/10 13:10:01;;;;;;;16.15;11.07;;;;;;;;;;5012142;28;20034;-59
2022/07/10 13:12:27;;;;;;;15.40;10.82;;;;;;;;;;5011887;28;20109;-59
2022/07/10 13:14:54;;;;;;;14.50;10.38;;;;;;;;;;5011904;28;20029;-60
2022/07/10 13:17:19;;;;;;;18.60;16.80;;;;;;;;;;5011125;28;20026;-60
2022/07/10 13:19:46;;;;;;;19.75;17.80;;;;;;;;;;5012195;28;20025;-61
2022/07/10 13:22:12;;;;;;;17.83;16.02;;;;;;;;;;4994554;28;20614;-60
2022/07/10 13:24:38;;;;;;;18.27;16.38;;;;;;;;;;5011551;28;20041;-60
2022/07/10 13:27:05;;;;;;;16.40;14.60;;;;;;;;;;5011755;28;20109;-58
2022/07/10 13:29:32;;;;;;;16.13;13.85;;;;;;;;;;5011738;28;20061;-59
2022/07/10 13:31:58;;;;;;;15.10;12.07;;;;;;;;;;5011984;28;20401;-59
2022/07/10 13:34:24;;;;;;;14.90;11.38;;;;;;;;;;5011858;28;20112;-58
2022/07/10 13:36:51;;;;;;;15.35;11.77;;;;;;;;;;5015272;28;20018;-61
2022/07/10 13:39:17;;;;;;;14.90;10.75;;;;;;;;;;5015479;28;20033;-57
2022/07/10 13:41:43;;;;;;;14.88;10.35;;;;;;;;;;4997748;28;20030;-55
2022/07/10 13:44:09;;;;;;;14.60;10.77;;;;;;;;;;5015780;28;20363;-59
2022/07/10 13:46:37;;;;;;;14.75;10.50;;;;;;;;;;5015298;28;20080;-55
2022/07/10 13:49:03;;;;;;;14.75;10.40;;;;;;;;;;5015565;28;20105;-59
2022/07/10 13:51:29;;;;;;;14.90;11.00;;;;;;;;;;5015415;28;20050;-58
2022/07/10 13:53:55;;;;;;;15.18;10.85;;;;;;;;;;5015215;28;20025;-59
2022/07/10 13:56:21;;;;;;;14.43;10.68;;;;;;;;;;5015234;28;20429;-60
2022/07/10 13:58:48;;;;;;;15.23;10.45;;;;;;;;;;5014768;28;20022;-59
2022/07/10 14:01:14;;;;;;;15.25;10.10;;;;;;;;;;5014762;28;20030;-61
2022/07/10 14:03:40;;;;;;;14.70;10.32;;;;;;;;;;5014935;28;20129;-58
2022/07/10 14:06:06;;;;;;;14.90;10.50;;;;;;;;;;5014967;28;20485;-59
2022/07/10 14:08:32;;;;;;;14.38;10.20;;;;;;;;;;5014562;28;20213;-60
2022/07/10 14:10:58;;;;;;;15.18;9.70;;;;;;;;;;5014761;28;20053;-57
2022/07/10 14:13:24;;;;;;;14.50;9.52;;;;;;;;;;5015041;28;20025;-58
2022/07/10 14:15:50;;;;;;;13.70;8.13;;;;;;;;;;5014338;28;20112;-60
2022/07/10 14:18:34;;;;;;;13.65;7.25;;;;;;;;;;5014407;28;20033;-57
2022/07/10 14:21:03;;;;;;;13.07;7.10;;;;;;;;;;5014771;28;20022;-58
2022/07/10 14:23:29;;;;;;;13.23;7.07;;;;;;;;;;5014387;28;20026;-59
2022/07/10 14:25:55;;;;;;;14.00;7.07;;;;;;;;;;5014988;28;20192;-62
2022/07/10 14:28:22;;;;;;;13.73;7.07;;;;;;;;;;5014344;28;20402;-60
2022/07/10 14:30:49;;;;;;;15.25;7.40;;;;;;;;;;5014513;28;20030;-59
2022/07/10 14:33:17;;;;;;;15.13;7.18;;;;;;;;;;4996672;28;20532;-58
2022/07/10 14:35:43;;;;;;;13.32;7.10;;;;;;;;;;5014266;28;20046;-59
2022/07/10 14:38:09;;;;;;;12.15;6.43;;;;;;;;;;5014051;28;20030;-57
2022/07/10 14:40:35;;;;;;;12.68;6.82;;;;;;;;;;4996766;28;20025;-60